Great Falls, Montana
Current Conditions -  °F | °C
As of 11:53 PM on Saturday 22 Nov 2014 (Local Time) from KGTF Reporting Station
Clear Clear  
Wind Chill: 21°   Ceiling: Unl
Heat Index: 32°   Visibility: 10mi
Dew Point: 20°   Wind: 16mph
Humidity: 61%   Direction: 250°WSW
Pressure: 29.68"   Gusts: NA
Location:  47.51°N, 111.3°W
Report Text: KGTF 230653Z 25014KT 10SM CLR 00/M07 A2968 RMK AO2 SLP071 T00001067 400891006
Loading
Personal Weather Stations






























Interactive Weather Map New forecast layout! Learn more

10-Day Weather Forecast

Advertisements
Track Severe Weather on mobile